Time;durP1;ratioP1;P1;durP2;ratioP2;P2;SDS_P1;SDS_P2;PMS_P1;PMS_P2;Temp;Humidity;BMP_temperature;BMP_pressure;BME280_temperature;BME280_humidity;BME280_pressure;Samples;Min_cycle;Max_cycle;Signal;HPM_P1;HPM_P2
2022/12/02 00:02:43;;;;;;;49.80;24.27;;;;;;;;;;4983149;28;20182;-88
2022/12/02 00:05:50;;;;;;;44.60;24.00;;;;;;;;;;4982295;28;20206;-89
2022/12/02 00:08:57;;;;;;;51.77;23.80;;;;;;;;;;5004692;28;20178;-89
2022/12/02 00:12:17;;;;;;;45.20;23.70;;;;;;;;;;5005025;28;20185;-89
2022/12/02 00:15:43;;;;;;;46.70;22.77;;;;;;;;;;4982155;28;20233;-88
2022/12/02 00:18:48;;;;;;;46.33;23.60;;;;;;;;;;4982677;28;20182;-88
2022/12/02 00:21:53;;;;;;;46.63;23.67;;;;;;;;;;4993186;28;20181;-88
2022/12/02 00:24:57;;;;;;;50.97;25.57;;;;;;;;;;5006277;28;20229;-88
2022/12/02 00:28:02;;;;;;;48.33;24.17;;;;;;;;;;5053673;23;20225;-86
2022/12/02 00:31:06;;;;;;;57.90;24.97;;;;;;;;;;5001908;28;20177;-86
2022/12/02 00:34:10;;;;;;;52.93;25.10;;;;;;;;;;5011968;28;20205;-86
2022/12/02 00:37:14;;;;;;;53.57;25.50;;;;;;;;;;5021501;28;20208;-84
2022/12/02 00:40:19;;;;;;;58.27;25.33;;;;;;;;;;4987565;28;20181;-86
2022/12/02 00:46:46;;;;;;;50.90;24.87;;;;;;;;;;4998496;28;20210;-86
2022/12/02 00:49:50;;;;;;;56.20;26.83;;;;;;;;;;4997771;28;20193;-87
2022/12/02 00:52:55;;;;;;;48.70;24.80;;;;;;;;;;4996715;28;20197;-87
2022/12/02 00:56:00;;;;;;;51.40;24.97;;;;;;;;;;4984887;28;20209;-86
2022/12/02 00:59:04;;;;;;;47.10;24.03;;;;;;;;;;4996146;28;20660;-86
2022/12/02 01:02:08;;;;;;;51.67;24.37;;;;;;;;;;4995796;28;20557;-86
2022/12/02 01:05:13;;;;;;;47.00;24.10;;;;;;;;;;4995209;28;20182;-87
2022/12/02 01:08:17;;;;;;;55.00;26.10;;;;;;;;;;4994328;28;20220;-86
2022/12/02 01:11:21;;;;;;;53.33;24.70;;;;;;;;;;4994924;28;20181;-86
2022/12/02 01:14:25;;;;;;;53.07;23.97;;;;;;;;;;4983491;28;20581;-86
2022/12/02 01:17:29;;;;;;;54.03;24.57;;;;;;;;;;4993479;28;20213;-87
2022/12/02 01:20:33;;;;;;;53.40;25.87;;;;;;;;;;5005337;28;20625;-86
2022/12/02 01:23:37;;;;;;;50.00;24.73;;;;;;;;;;4994360;28;20186;-85
2022/12/02 01:26:42;;;;;;;49.33;24.47;;;;;;;;;;4994784;28;20225;-86
2022/12/02 01:29:46;;;;;;;53.00;24.03;;;;;;;;;;4994983;28;20186;-86
2022/12/02 01:32:50;;;;;;;54.67;25.20;;;;;;;;;;4983321;28;20181;-86
2022/12/02 01:35:54;;;;;;;50.23;25.30;;;;;;;;;;4982442;28;20205;-85
2022/12/02 01:38:58;;;;;;;49.10;23.93;;;;;;;;;;4982917;28;20181;-85
2022/12/02 01:42:03;;;;;;;53.07;25.10;;;;;;;;;;4983411;28;20595;-86
2022/12/02 01:45:08;;;;;;;55.77;25.23;;;;;;;;;;5004497;28;20194;-86
2022/12/02 01:48:12;;;;;;;50.17;25.83;;;;;;;;;;5004689;28;20213;-86
2022/12/02 01:51:16;;;;;;;53.50;24.70;;;;;;;;;;5005911;28;20182;-86
2022/12/02 01:54:23;;;;;;;55.87;25.60;;;;;;;;;;4996918;28;20684;-85
2022/12/02 01:57:29;;;;;;;53.50;25.37;;;;;;;;;;4994749;28;20599;-86
2022/12/02 02:00:33;;;;;;;50.67;24.53;;;;;;;;;;4983802;28;20190;-86
2022/12/02 02:03:37;;;;;;;51.50;24.70;;;;;;;;;;4981980;28;20515;-87
2022/12/02 02:06:44;;;;;;;42.67;22.67;;;;;;;;;;4992856;28;20213;-87
2022/12/02 02:09:50;;;;;;;50.97;23.10;;;;;;;;;;4982072;28;20656;-86
2022/12/02 02:12:54;;;;;;;51.63;23.10;;;;;;;;;;4981504;28;20181;-86
2022/12/02 02:15:58;;;;;;;49.20;24.27;;;;;;;;;;4992621;28;20205;-87
2022/12/02 02:19:04;;;;;;;51.93;25.13;;;;;;;;;;4992910;28;20276;-87
2022/12/02 02:22:13;;;;;;;48.00;23.67;;;;;;;;;;4981675;28;20197;-86
2022/12/02 02:25:17;;;;;;;47.83;22.23;;;;;;;;;;5003047;28;20201;-87
2022/12/02 02:28:23;;;;;;;54.80;22.57;;;;;;;;;;4992078;28;20220;-87
2022/12/02 02:31:28;;;;;;;46.30;22.23;;;;;;;;;;5003378;28;20197;-86
2022/12/02 02:34:32;;;;;;;47.17;21.73;;;;;;;;;;4992051;28;20513;-87
2022/12/02 02:37:38;;;;;;;45.40;21.77;;;;;;;;;;4992046;28;20213;-86
2022/12/02 02:40:43;;;;;;;47.40;22.43;;;;;;;;;;4991647;28;20514;-87
2022/12/02 02:43:47;;;;;;;52.83;23.60;;;;;;;;;;4992138;28;20178;-86
2022/12/02 02:46:51;;;;;;;45.83;23.13;;;;;;;;;;4991318;28;20213;-86
2022/12/02 02:49:56;;;;;;;44.07;22.83;;;;;;;;;;4991835;28;20182;-87
2022/12/02 02:53:00;;;;;;;46.03;22.43;;;;;;;;;;4991728;28;20200;-87
2022/12/02 02:56:06;;;;;;;47.57;22.50;;;;;;;;;;4991615;28;20205;-86
2022/12/02 02:59:14;;;;;;;45.70;22.23;;;;;;;;;;4991992;28;20181;-86
2022/12/02 03:02:19;;;;;;;46.63;21.60;;;;;;;;;;4991263;28;20652;-86
2022/12/02 03:05:23;;;;;;;49.13;22.57;;;;;;;;;;5002317;28;20654;-86
2022/12/02 03:08:30;;;;;;;46.20;21.53;;;;;;;;;;5002509;28;20537;-87
2022/12/02 03:11:37;;;;;;;48.77;23.90;;;;;;;;;;4991319;28;20178;-86
2022/12/02 03:14:42;;;;;;;45.00;22.43;;;;;;;;;;4991744;28;20637;-87
2022/12/02 03:17:46;;;;;;;43.87;21.70;;;;;;;;;;4991228;28;20213;-87
2022/12/02 03:20:50;;;;;;;45.40;23.03;;;;;;;;;;4991427;28;20613;-86
2022/12/02 03:23:57;;;;;;;46.00;22.13;;;;;;;;;;5002442;28;20185;-86
2022/12/02 03:27:01;;;;;;;46.27;23.43;;;;;;;;;;4991056;28;20585;-87
2022/12/02 03:30:06;;;;;;;47.93;23.07;;;;;;;;;;5002156;28;20185;-87
2022/12/02 03:33:11;;;;;;;42.77;22.43;;;;;;;;;;5002129;28;20182;-86
2022/12/02 03:36:15;;;;;;;43.30;22.93;;;;;;;;;;4990972;28;20660;-86
2022/12/02 03:39:20;;;;;;;45.97;21.53;;;;;;;;;;5014194;28;20178;-87
2022/12/02 03:42:25;;;;;;;42.23;21.67;;;;;;;;;;4990892;28;20186;-86
2022/12/02 03:45:30;;;;;;;47.80;22.17;;;;;;;;;;4991763;28;20169;-87
2022/12/02 03:48:37;;;;;;;45.33;22.03;;;;;;;;;;4991687;28;20217;-86
2022/12/02 03:51:41;;;;;;;42.43;20.90;;;;;;;;;;4991902;28;20181;-86
2022/12/02 03:54:45;;;;;;;39.87;20.67;;;;;;;;;;5002847;28;20177;-86
2022/12/02 03:57:49;;;;;;;40.10;19.83;;;;;;;;;;5002339;28;20683;-86
2022/12/02 04:00:53;;;;;;;36.47;20.23;;;;;;;;;;4991515;28;20220;-86
2022/12/02 04:03:58;;;;;;;37.97;18.57;;;;;;;;;;5002279;28;20197;-86
2022/12/02 04:07:02;;;;;;;33.87;18.20;;;;;;;;;;4992073;28;20210;-86
2022/12/02 04:10:06;;;;;;;39.27;19.37;;;;;;;;;;5002803;28;20185;-86
2022/12/02 04:13:10;;;;;;;35.27;18.47;;;;;;;;;;4991528;28;20185;-86
2022/12/02 04:16:15;;;;;;;34.30;18.97;;;;;;;;;;5003839;28;20217;-86
2022/12/02 04:19:19;;;;;;;31.73;16.73;;;;;;;;;;4994960;28;20186;-86
2022/12/02 04:22:23;;;;;;;32.77;18.27;;;;;;;;;;4995103;28;20185;-86
2022/12/02 04:25:27;;;;;;;34.77;17.83;;;;;;;;;;4995057;28;20190;-86
2022/12/02 04:28:32;;;;;;;32.53;17.57;;;;;;;;;;4995271;28;20221;-86
2022/12/02 04:31:36;;;;;;;33.97;18.23;;;;;;;;;;4999206;28;20178;-86
2022/12/02 04:34:40;;;;;;;35.60;18.73;;;;;;;;;;4999868;28;20182;-86
2022/12/02 04:37:44;;;;;;;33.03;17.87;;;;;;;;;;5000600;28;20209;-85
2022/12/02 04:40:49;;;;;;;31.50;16.67;;;;;;;;;;5011603;28;20177;-85
2022/12/02 04:43:53;;;;;;;31.73;17.43;;;;;;;;;;5000090;28;20177;-86
2022/12/02 04:46:57;;;;;;;36.33;18.53;;;;;;;;;;5000835;28;20213;-86
2022/12/02 04:50:03;;;;;;;32.73;17.83;;;;;;;;;;5000520;28;20177;-85
2022/12/02 04:53:07;;;;;;;34.17;16.73;;;;;;;;;;5000525;28;20178;-86
2022/12/02 04:56:11;;;;;;;33.23;17.20;;;;;;;;;;5000503;28;20210;-86
2022/12/02 04:59:15;;;;;;;36.77;18.67;;;;;;;;;;4999788;28;20648;-86
2022/12/02 05:02:20;;;;;;;31.33;17.30;;;;;;;;;;4988439;28;20201;-86
2022/12/02 05:05:24;;;;;;;36.10;18.40;;;;;;;;;;4999148;28;20178;-86
2022/12/02 05:08:28;;;;;;;35.13;18.63;;;;;;;;;;5010359;28;20221;-85
2022/12/02 05:11:32;;;;;;;37.33;18.53;;;;;;;;;;5000616;28;20178;-85
2022/12/02 05:14:36;;;;;;;41.87;19.37;;;;;;;;;;5002626;28;20197;-84
2022/12/02 05:17:40;;;;;;;34.53;18.27;;;;;;;;;;5006430;28;20210;-85
2022/12/02 05:20:45;;;;;;;38.87;18.70;;;;;;;;;;5005243;28;20181;-85
2022/12/02 05:23:49;;;;;;;41.80;19.43;;;;;;;;;;5016661;28;20181;-85
2022/12/02 05:26:53;;;;;;;39.50;18.77;;;;;;;;;;5013847;28;20225;-84
2022/12/02 05:29:58;;;;;;;37.93;19.80;;;;;;;;;;5002886;28;20182;-85
2022/12/02 05:33:02;;;;;;;38.43;19.43;;;;;;;;;;5003239;28;20194;-84
2022/12/02 05:36:11;;;;;;;39.37;18.50;;;;;;;;;;5002840;28;20206;-84
2022/12/02 05:39:15;;;;;;;38.00;18.93;;;;;;;;;;5002564;28;20609;-84
2022/12/02 05:42:19;;;;;;;39.57;19.23;;;;;;;;;;5002147;28;20197;-85
2022/12/02 05:45:23;;;;;;;38.70;18.60;;;;;;;;;;5003081;28;20205;-84
2022/12/02 05:48:33;;;;;;;41.50;20.17;;;;;;;;;;5013652;28;20229;-85
2022/12/02 05:51:37;;;;;;;39.80;20.27;;;;;;;;;;5013376;28;20549;-85
2022/12/02 05:54:41;;;;;;;40.30;19.20;;;;;;;;;;5002716;28;20182;-84
2022/12/02 05:57:45;;;;;;;36.30;18.73;;;;;;;;;;5002572;28;20209;-84
2022/12/02 06:00:58;;;;;;;43.37;20.87;;;;;;;;;;5003541;28;20185;-85
2022/12/02 06:04:04;;;;;;;41.03;20.83;;;;;;;;;;5003423;28;20186;-84
2022/12/02 06:07:12;;;;;;;45.47;20.63;;;;;;;;;;4991739;28;20217;-84
2022/12/02 06:10:31;;;;;;;49.50;22.33;;;;;;;;;;5005611;28;20621;-84
2022/12/02 06:13:37;;;;;;;52.17;23.03;;;;;;;;;;5002092;28;20204;-84
2022/12/02 06:17:04;;;;;;;49.90;23.00;;;;;;;;;;5003275;28;20225;-84
2022/12/02 06:20:22;;;;;;;51.10;22.13;;;;;;;;;;4992435;28;20181;-84
2022/12/02 06:23:30;;;;;;;49.63;22.47;;;;;;;;;;5000075;28;20201;-84
2022/12/02 06:26:34;;;;;;;48.63;21.73;;;;;;;;;;5019899;28;20210;-84
2022/12/02 06:29:44;;;;;;;48.60;22.23;;;;;;;;;;5015616;28;20190;-84
2022/12/02 06:32:53;;;;;;;46.33;22.17;;;;;;;;;;5015498;28;20185;-86
2022/12/02 06:36:01;;;;;;;48.57;21.93;;;;;;;;;;5013780;28;20209;-85
2022/12/02 06:39:19;;;;;;;47.50;21.93;;;;;;;;;;4989546;28;20206;-85
2022/12/02 06:42:30;;;;;;;53.33;21.20;;;;;;;;;;5012091;28;20540;-85
2022/12/02 06:45:34;;;;;;;45.70;21.00;;;;;;;;;;5011688;28;20218;-85
2022/12/02 06:48:39;;;;;;;48.13;21.73;;;;;;;;;;5000053;28;20216;-87
2022/12/02 06:51:43;;;;;;;47.23;21.33;;;;;;;;;;5000505;28;20533;-86
2022/12/02 06:54:51;;;;;;;44.67;21.97;;;;;;;;;;5012116;28;20185;-85
2022/12/02 06:58:00;;;;;;;48.00;23.10;;;;;;;;;;5000142;28;20714;-86
2022/12/02 07:01:07;;;;;;;51.80;23.30;;;;;;;;;;5001112;28;20189;-85
2022/12/02 07:04:23;;;;;;;50.23;22.70;;;;;;;;;;5000760;28;20185;-85
2022/12/02 07:07:30;;;;;;;56.07;23.17;;;;;;;;;;4999216;28;20213;-87
2022/12/02 07:10:34;;;;;;;52.87;23.90;;;;;;;;;;4999107;28;20177;-87
2022/12/02 07:13:38;;;;;;;45.40;22.33;;;;;;;;;;4999662;28;20180;-87
2022/12/02 07:16:42;;;;;;;48.67;21.87;;;;;;;;;;5010121;28;20236;-87
2022/12/02 07:19:56;;;;;;;58.10;24.17;;;;;;;;;;4997283;28;20184;-87
2022/12/02 07:23:08;;;;;;;47.30;23.27;;;;;;;;;;4990390;28;20197;-87
2022/12/02 07:26:12;;;;;;;57.43;23.93;;;;;;;;;;4979591;28;20178;-87
2022/12/02 07:29:27;;;;;;;50.43;23.23;;;;;;;;;;4980083;28;20633;-87
2022/12/02 07:32:32;;;;;;;49.70;23.37;;;;;;;;;;4990862;28;20648;-86
2022/12/02 07:35:36;;;;;;;51.57;23.33;;;;;;;;;;4991233;28;20178;-87
2022/12/02 07:38:41;;;;;;;49.47;23.40;;;;;;;;;;4979245;28;20214;-87
2022/12/02 07:41:44;;;;;;;57.33;23.37;;;;;;;;;;4990995;28;20185;-86
2022/12/02 07:44:49;;;;;;;50.23;22.77;;;;;;;;;;4979397;28;20185;-87
2022/12/02 07:47:53;;;;;;;50.23;22.53;;;;;;;;;;4979528;28;20217;-87
2022/12/02 07:50:57;;;;;;;54.03;23.57;;;;;;;;;;4991706;28;20525;-87
2022/12/02 07:54:01;;;;;;;53.47;24.00;;;;;;;;;;4983378;28;20185;-87
2022/12/02 07:57:05;;;;;;;62.63;25.93;;;;;;;;;;5003239;28;20232;-86
2022/12/02 08:00:11;;;;;;;53.27;24.97;;;;;;;;;;4987874;28;20192;-86
2022/12/02 08:03:18;;;;;;;53.07;22.77;;;;;;;;;;5002952;28;20181;-87
2022/12/02 08:06:22;;;;;;;55.93;24.40;;;;;;;;;;5002487;28;20181;-86
2022/12/02 08:09:26;;;;;;;56.10;24.37;;;;;;;;;;5002535;28;20181;-87
2022/12/02 08:12:30;;;;;;;49.10;22.90;;;;;;;;;;5013882;28;20200;-87
2022/12/02 08:15:34;;;;;;;55.43;24.53;;;;;;;;;;5013937;28;20181;-86
2022/12/02 08:18:39;;;;;;;48.30;23.70;;;;;;;;;;5013592;28;20216;-87
2022/12/02 08:21:43;;;;;;;52.27;22.70;;;;;;;;;;5013916;28;20177;-87
2022/12/02 08:24:47;;;;;;;53.20;24.80;;;;;;;;;;5002354;28;20172;-87
2022/12/02 08:27:51;;;;;;;51.33;23.40;;;;;;;;;;5001874;28;20216;-87
2022/12/02 08:30:55;;;;;;;50.80;23.27;;;;;;;;;;5013551;28;20185;-87
2022/12/02 08:33:59;;;;;;;49.03;21.73;;;;;;;;;;5013216;28;20517;-87
2022/12/02 08:37:04;;;;;;;51.93;23.10;;;;;;;;;;5012889;28;20732;-87
2022/12/02 08:40:08;;;;;;;53.10;24.27;;;;;;;;;;5013103;28;20185;-86
2022/12/02 08:43:12;;;;;;;47.77;22.90;;;;;;;;;;5025016;28;20196;-85
2022/12/02 08:46:16;;;;;;;55.80;24.77;;;;;;;;;;5013286;28;20180;-86
2022/12/02 08:49:21;;;;;;;52.83;24.70;;;;;;;;;;5013060;28;20180;-87
2022/12/02 08:52:25;;;;;;;52.47;24.20;;;;;;;;;;5013014;28;20181;-86
2022/12/02 08:55:29;;;;;;;50.27;24.23;;;;;;;;;;5002941;28;20185;-86
2022/12/02 08:58:33;;;;;;;48.97;23.97;;;;;;;;;;5001534;28;20228;-87
2022/12/02 09:01:37;;;;;;;52.30;24.33;;;;;;;;;;5012857;28;20173;-86
2022/12/02 09:04:41;;;;;;;55.00;23.97;;;;;;;;;;4996377;28;20201;-87
2022/12/02 09:07:46;;;;;;;47.17;23.73;;;;;;;;;;4978480;28;20225;-85
2022/12/02 09:10:50;;;;;;;49.70;23.47;;;;;;;;;;4976974;28;20515;-86
2022/12/02 09:13:54;;;;;;;42.13;22.53;;;;;;;;;;4995091;28;20645;-86
2022/12/02 09:16:58;;;;;;;48.07;23.17;;;;;;;;;;4987574;28;20233;-88
2022/12/02 09:20:03;;;;;;;43.37;22.73;;;;;;;;;;4998885;28;20521;-88
2022/12/02 09:23:08;;;;;;;47.50;22.67;;;;;;;;;;4987076;28;20193;-85
2022/12/02 09:26:12;;;;;;;48.83;23.97;;;;;;;;;;4995675;28;20201;-85
2022/12/02 09:29:16;;;;;;;55.40;25.00;;;;;;;;;;4995004;28;20205;-85
2022/12/02 09:32:20;;;;;;;58.10;26.00;;;;;;;;;;4994585;28;20201;-86
2022/12/02 09:35:24;;;;;;;51.70;23.63;;;;;;;;;;4996592;28;20209;-86
2022/12/02 09:38:30;;;;;;;52.43;23.60;;;;;;;;;;5013073;28;20221;-86
2022/12/02 09:41:35;;;;;;;46.93;22.77;;;;;;;;;;5001526;28;20198;-85
2022/12/02 09:44:40;;;;;;;42.33;22.40;;;;;;;;;;5003821;28;20197;-88
2022/12/02 09:47:44;;;;;;;46.47;22.83;;;;;;;;;;4995784;28;20218;-87
2022/12/02 09:50:50;;;;;;;44.73;21.37;;;;;;;;;;4995287;28;20186;-88
2022/12/02 09:53:56;;;;;;;48.53;23.70;;;;;;;;;;5011196;28;20664;-86
2022/12/02 09:57:00;;;;;;;45.10;23.67;;;;;;;;;;5009554;28;20229;-86
2022/12/02 10:00:08;;;;;;;47.17;23.20;;;;;;;;;;5000614;28;20178;-87
2022/12/02 10:03:15;;;;;;;43.23;21.40;;;;;;;;;;4988524;28;20621;-86
2022/12/02 10:06:24;;;;;;;45.37;22.20;;;;;;;;;;4988230;28;20637;-86
2022/12/02 10:09:29;;;;;;;43.37;21.07;;;;;;;;;;4998298;28;20178;-86
2022/12/02 10:12:33;;;;;;;43.93;21.73;;;;;;;;;;4996754;28;20186;-86
2022/12/02 10:15:38;;;;;;;45.73;21.67;;;;;;;;;;4995287;28;20510;-86
2022/12/02 10:18:42;;;;;;;43.00;22.53;;;;;;;;;;4993692;28;20692;-86
2022/12/02 10:21:46;;;;;;;37.70;20.23;;;;;;;;;;4982077;28;20333;-87
2022/12/02 10:24:50;;;;;;;38.23;20.03;;;;;;;;;;4982310;28;20178;-87
2022/12/02 10:27:54;;;;;;;34.73;19.80;;;;;;;;;;4991810;28;20224;-87
2022/12/02 10:31:08;;;;;;;40.23;21.03;;;;;;;;;;4992472;28;20668;-87
2022/12/02 10:34:19;;;;;;;37.97;18.90;;;;;;;;;;4992277;28;20181;-86
2022/12/02 10:37:24;;;;;;;37.20;20.33;;;;;;;;;;4980943;28;20566;-87
2022/12/02 10:40:29;;;;;;;40.60;20.17;;;;;;;;;;5003565;28;20625;-86
2022/12/02 10:43:33;;;;;;;33.63;18.80;;;;;;;;;;4992537;28;20178;-87
2022/12/02 10:46:37;;;;;;;34.83;19.03;;;;;;;;;;4992163;28;20190;-87
2022/12/02 10:49:59;;;;;;;36.23;19.87;;;;;;;;;;4992514;28;20173;-86
2022/12/02 10:53:10;;;;;;;42.30;19.47;;;;;;;;;;4981195;28;20177;-86
2022/12/02 10:56:22;;;;;;;33.33;17.93;;;;;;;;;;4992289;28;20185;-86
2022/12/02 10:59:26;;;;;;;31.67;17.60;;;;;;;;;;4992275;28;20169;-86
2022/12/02 11:02:34;;;;;;;28.90;16.50;;;;;;;;;;4992666;28;20193;-86
2022/12/02 11:05:39;;;;;;;30.17;16.70;;;;;;;;;;4981586;28;20178;-86
2022/12/02 11:08:46;;;;;;;28.07;16.93;;;;;;;;;;4992637;28;20174;-86
2022/12/02 11:11:50;;;;;;;29.43;18.00;;;;;;;;;;4992952;28;20177;-86
2022/12/02 11:14:55;;;;;;;33.13;18.30;;;;;;;;;;4992128;28;20199;-86
2022/12/02 11:17:59;;;;;;;34.33;17.37;;;;;;;;;;4991461;28;20724;-84
2022/12/02 11:21:06;;;;;;;31.10;17.30;;;;;;;;;;5001095;28;20193;-84
2022/12/02 11:24:23;;;;;;;33.63;18.37;;;;;;;;;;4989364;28;20197;-84
2022/12/02 11:27:27;;;;;;;32.00;15.87;;;;;;;;;;5010433;28;20229;-86
2022/12/02 11:30:36;;;;;;;31.93;16.60;;;;;;;;;;4984234;28;20518;-87
2022/12/02 11:33:47;;;;;;;27.70;15.73;;;;;;;;;;4984342;28;20557;-87
2022/12/02 11:37:39;;;;;;;37.30;19.63;;;;;;;;;;4995855;28;20225;-86
2022/12/02 11:40:43;;;;;;;36.97;17.70;;;;;;;;;;5000659;28;20182;-86
2022/12/02 11:43:47;;;;;;;31.60;16.03;;;;;;;;;;4994982;28;20544;-86
2022/12/02 11:46:59;;;;;;;29.33;16.50;;;;;;;;;;4984225;28;20553;-84
2022/12/02 11:50:21;;;;;;;27.87;15.93;;;;;;;;;;4976753;28;20538;-84
2022/12/02 11:53:25;;;;;;;33.40;15.73;;;;;;;;;;4978653;28;20182;-84
2022/12/02 11:56:39;;;;;;;33.50;16.93;;;;;;;;;;4992749;28;20216;-84
2022/12/02 11:59:43;;;;;;;32.70;15.70;;;;;;;;;;5008786;28;20170;-87
2022/12/02 12:03:06;;;;;;;29.67;15.13;;;;;;;;;;4996304;28;20205;-86
2022/12/02 12:06:16;;;;;;;27.03;15.30;;;;;;;;;;4974921;28;20178;-86
2022/12/02 12:09:20;;;;;;;24.80;13.57;;;;;;;;;;4984285;28;20201;-86
2022/12/02 12:12:24;;;;;;;25.87;14.13;;;;;;;;;;4996253;28;20186;-84
2022/12/02 12:15:47;;;;;;;27.77;14.97;;;;;;;;;;4987545;28;20210;-85
2022/12/02 12:18:52;;;;;;;24.17;13.03;;;;;;;;;;5006237;28;20209;-84
2022/12/02 12:21:59;;;;;;;30.93;14.43;;;;;;;;;;4997685;28;20181;-84
2022/12/02 12:25:30;;;;;;;27.43;14.83;;;;;;;;;;4997124;28;20170;-84
2022/12/02 12:28:36;;;;;;;30.43;14.73;;;;;;;;;;4997038;28;20213;-84
2022/12/02 12:31:42;;;;;;;27.10;14.47;;;;;;;;;;4978253;28;20206;-84
2022/12/02 12:34:46;;;;;;;24.27;13.70;;;;;;;;;;4976932;28;20217;-84
2022/12/02 12:37:51;;;;;;;24.10;13.23;;;;;;;;;;4966742;28;20217;-85
2022/12/02 12:40:56;;;;;;;24.77;14.17;;;;;;;;;;4989271;28;20186;-85
2022/12/02 12:44:01;;;;;;;26.83;14.83;;;;;;;;;;4978221;28;20186;-85
2022/12/02 12:47:06;;;;;;;26.27;14.80;;;;;;;;;;4977370;28;20218;-84
2022/12/02 12:50:10;;;;;;;26.57;14.23;;;;;;;;;;5008162;28;20194;-84
2022/12/02 12:53:15;;;;;;;23.93;13.73;;;;;;;;;;4985376;28;20202;-84
2022/12/02 12:56:19;;;;;;;26.60;13.80;;;;;;;;;;4985325;28;20183;-84
2022/12/02 12:59:23;;;;;;;24.60;13.90;;;;;;;;;;4991531;28;20217;-83
2022/12/02 13:02:27;;;;;;;29.37;14.27;;;;;;;;;;4996214;28;20194;-84
2022/12/02 13:05:32;;;;;;;26.77;14.97;;;;;;;;;;5017957;28;20185;-85
2022/12/02 13:08:36;;;;;;;25.13;14.67;;;;;;;;;;4983531;28;20213;-85
2022/12/02 13:11:40;;;;;;;25.47;13.73;;;;;;;;;;5006920;28;20174;-84
2022/12/02 13:14:44;;;;;;;28.60;15.33;;;;;;;;;;5018847;28;20644;-85
2022/12/02 13:17:49;;;;;;;27.20;14.70;;;;;;;;;;4995662;28;20229;-84
2022/12/02 13:20:53;;;;;;;29.67;15.87;;;;;;;;;;5006609;28;20186;-84
2022/12/02 13:23:57;;;;;;;43.17;21.23;;;;;;;;;;4995525;28;20205;-84
2022/12/02 13:27:01;;;;;;;43.63;23.77;;;;;;;;;;4994727;28;20224;-85
2022/12/02 13:30:09;;;;;;;35.13;19.27;;;;;;;;;;4994690;28;20177;-84
2022/12/02 13:33:13;;;;;;;27.93;15.47;;;;;;;;;;4994938;28;20186;-84
2022/12/02 13:36:18;;;;;;;29.63;15.00;;;;;;;;;;4983729;28;20554;-85
2022/12/02 13:39:22;;;;;;;29.87;15.47;;;;;;;;;;4994521;28;20205;-84
2022/12/02 13:42:26;;;;;;;30.50;15.53;;;;;;;;;;5005690;28;20549;-84
2022/12/02 13:45:31;;;;;;;28.93;14.53;;;;;;;;;;5005909;28;20525;-84
2022/12/02 13:48:35;;;;;;;29.63;15.50;;;;;;;;;;4993467;28;20620;-84
2022/12/02 13:51:39;;;;;;;33.17;17.07;;;;;;;;;;4993628;28;20548;-84
2022/12/02 13:54:43;;;;;;;31.17;16.83;;;;;;;;;;4993837;28;20181;-84
2022/12/02 13:57:48;;;;;;;31.83;15.87;;;;;;;;;;4993904;28;20631;-84
2022/12/02 14:00:52;;;;;;;26.63;14.93;;;;;;;;;;4994157;28;20189;-84
2022/12/02 14:03:56;;;;;;;30.27;15.20;;;;;;;;;;4993757;28;20893;-84
2022/12/02 14:07:01;;;;;;;32.17;15.80;;;;;;;;;;4993086;28;21178;-84
2022/12/02 14:10:05;;;;;;;30.23;15.57;;;;;;;;;;5005137;28;20603;-84
2022/12/02 14:13:10;;;;;;;25.43;13.77;;;;;;;;;;5005693;28;20556;-85
2022/12/02 14:16:15;;;;;;;27.10;14.10;;;;;;;;;;4994028;28;20874;-84
2022/12/02 14:19:19;;;;;;;30.73;15.37;;;;;;;;;;5005981;28;20603;-85
2022/12/02 14:22:23;;;;;;;28.47;14.60;;;;;;;;;;4994246;28;20190;-84
2022/12/02 14:25:28;;;;;;;30.17;15.33;;;;;;;;;;5005387;28;20544;-84
2022/12/02 14:28:32;;;;;;;29.10;15.60;;;;;;;;;;4993472;28;20565;-85
2022/12/02 14:31:36;;;;;;;25.47;14.07;;;;;;;;;;5016575;28;20608;-84
2022/12/02 14:34:40;;;;;;;31.70;16.03;;;;;;;;;;4993745;28;20197;-85
2022/12/02 14:37:44;;;;;;;35.90;16.13;;;;;;;;;;5004560;28;21210;-84
2022/12/02 14:40:48;;;;;;;26.40;15.17;;;;;;;;;;5005238;28;20533;-84
2022/12/02 14:43:52;;;;;;;29.67;15.37;;;;;;;;;;5006531;28;20205;-85
2022/12/02 14:46:57;;;;;;;29.70;16.57;;;;;;;;;;5004554;28;20677;-84
2022/12/02 14:50:01;;;;;;;28.10;15.87;;;;;;;;;;4987502;28;20605;-84
2022/12/02 14:53:05;;;;;;;25.53;15.67;;;;;;;;;;4984653;28;20597;-85
2022/12/02 14:56:10;;;;;;;31.33;15.17;;;;;;;;;;4995936;28;20542;-84
2022/12/02 14:59:14;;;;;;;28.43;15.43;;;;;;;;;;4986721;28;20585;-86
2022/12/02 15:02:18;;;;;;;30.90;16.60;;;;;;;;;;4972609;28;20541;-85
2022/12/02 15:05:23;;;;;;;29.53;16.33;;;;;;;;;;4963808;28;21077;-84
2022/12/02 15:08:27;;;;;;;26.47;14.67;;;;;;;;;;5004662;28;20607;-84
2022/12/02 15:11:32;;;;;;;27.57;16.13;;;;;;;;;;4992826;28;20595;-84
2022/12/02 15:14:36;;;;;;;32.50;16.50;;;;;;;;;;4992562;28;20608;-84
2022/12/02 15:17:40;;;;;;;33.33;17.33;;;;;;;;;;5003727;28;20639;-86
2022/12/02 15:20:44;;;;;;;24.90;14.97;;;;;;;;;;4992758;28;21174;-84
2022/12/02 15:23:49;;;;;;;30.40;16.00;;;;;;;;;;5003502;28;20620;-83
2022/12/02 15:26:53;;;;;;;25.93;15.13;;;;;;;;;;4997105;28;20639;-85
2022/12/02 15:29:57;;;;;;;25.73;15.53;;;;;;;;;;4995842;28;20541;-83
2022/12/02 15:33:01;;;;;;;26.87;15.60;;;;;;;;;;4993546;28;20545;-82
2022/12/02 15:36:06;;;;;;;25.83;15.47;;;;;;;;;;4992551;28;20545;-81
2022/12/02 15:39:10;;;;;;;31.60;16.73;;;;;;;;;;5002750;28;20652;-82
2022/12/02 15:42:14;;;;;;;31.73;17.17;;;;;;;;;;5005052;28;20540;-85
2022/12/02 15:45:18;;;;;;;27.80;15.93;;;;;;;;;;4983123;28;20541;-86
2022/12/02 15:48:22;;;;;;;32.73;16.83;;;;;;;;;;4986707;28;20656;-84
2022/12/02 15:51:26;;;;;;;28.03;15.70;;;;;;;;;;4989466;28;20607;-84
2022/12/02 15:54:32;;;;;;;28.23;15.60;;;;;;;;;;4998186;28;20542;-86
2022/12/02 15:57:36;;;;;;;27.33;15.60;;;;;;;;;;5002725;28;20623;-85
2022/12/02 16:00:40;;;;;;;35.87;18.80;;;;;;;;;;4995693;28;21167;-87
2022/12/02 16:03:44;;;;;;;34.57;19.00;;;;;;;;;;4983191;28;20553;-86
2022/12/02 16:06:48;;;;;;;33.03;19.00;;;;;;;;;;4985973;28;20631;-86
2022/12/02 16:09:53;;;;;;;49.83;26.13;;;;;;;;;;4988314;28;20902;-84
2022/12/02 16:12:57;;;;;;;46.47;22.70;;;;;;;;;;5013367;28;20545;-86
2022/12/02 16:16:01;;;;;;;34.73;18.80;;;;;;;;;;5018066;28;20538;-85
2022/12/02 16:19:06;;;;;;;35.13;18.70;;;;;;;;;;4987945;28;20588;-84
2022/12/02 16:22:10;;;;;;;29.53;17.83;;;;;;;;;;5015971;28;20584;-84
2022/12/02 16:25:15;;;;;;;35.67;18.70;;;;;;;;;;4985744;28;20537;-84
2022/12/02 16:28:19;;;;;;;34.77;18.33;;;;;;;;;;4997730;28;20639;-86
2022/12/02 16:31:23;;;;;;;30.27;16.90;;;;;;;;;;4996261;28;20600;-85
2022/12/02 16:34:27;;;;;;;32.03;18.47;;;;;;;;;;4985166;28;20592;-84
2022/12/02 16:37:31;;;;;;;33.93;18.57;;;;;;;;;;4984793;28;20633;-84
2022/12/02 16:40:35;;;;;;;36.63;19.73;;;;;;;;;;4996017;28;20592;-84
2022/12/02 16:43:39;;;;;;;37.27;18.90;;;;;;;;;;4995682;28;20612;-85
2022/12/02 16:46:44;;;;;;;35.40;19.67;;;;;;;;;;5007122;28;20623;-84
2022/12/02 16:49:48;;;;;;;35.27;19.50;;;;;;;;;;5006645;28;20554;-84
2022/12/02 16:52:52;;;;;;;35.73;18.13;;;;;;;;;;4997575;28;20197;-85
2022/12/02 16:55:57;;;;;;;34.20;20.23;;;;;;;;;;4995489;28;20600;-85
2022/12/02 16:59:01;;;;;;;34.03;18.93;;;;;;;;;;5009102;28;20646;-84
2022/12/02 17:02:05;;;;;;;33.60;19.03;;;;;;;;;;5017323;28;20549;-84
2022/12/02 17:05:09;;;;;;;32.20;17.63;;;;;;;;;;5005605;28;20560;-84
2022/12/02 17:08:13;;;;;;;33.03;18.07;;;;;;;;;;5007494;28;20627;-85
2022/12/02 17:11:18;;;;;;;31.33;17.50;;;;;;;;;;4995830;28;20537;-85
2022/12/02 17:14:22;;;;;;;34.00;17.60;;;;;;;;;;4996541;28;20667;-84
2022/12/02 17:17:26;;;;;;;31.90;18.00;;;;;;;;;;4994531;28;20620;-84
2022/12/02 17:20:30;;;;;;;30.93;17.83;;;;;;;;;;4987110;28;20605;-85
2022/12/02 17:23:35;;;;;;;34.07;17.37;;;;;;;;;;4974979;28;20182;-84
2022/12/02 17:26:39;;;;;;;29.07;17.37;;;;;;;;;;4965119;28;20234;-85
2022/12/02 17:29:43;;;;;;;35.13;18.13;;;;;;;;;;4977446;28;20186;-84
2022/12/02 17:32:47;;;;;;;34.77;18.27;;;;;;;;;;5006152;28;20178;-84
2022/12/02 17:35:53;;;;;;;33.87;17.70;;;;;;;;;;5006335;28;20583;-85
2022/12/02 17:38:57;;;;;;;32.43;18.50;;;;;;;;;;5022339;28;20182;-85
2022/12/02 17:42:01;;;;;;;33.37;19.27;;;;;;;;;;5001751;28;20200;-84
2022/12/02 17:45:06;;;;;;;33.57;19.10;;;;;;;;;;5024262;28;20197;-86
2022/12/02 17:48:10;;;;;;;38.90;19.70;;;;;;;;;;5012866;28;20675;-85
2022/12/02 17:51:16;;;;;;;39.57;19.37;;;;;;;;;;5012019;28;20181;-85
2022/12/02 17:54:20;;;;;;;36.30;18.80;;;;;;;;;;5011955;28;20592;-86
2022/12/02 17:57:25;;;;;;;36.23;19.20;;;;;;;;;;5002622;28;20627;-85
2022/12/02 18:00:29;;;;;;;43.70;19.60;;;;;;;;;;5023253;28;20588;-86
2022/12/02 18:03:33;;;;;;;36.10;19.97;;;;;;;;;;4989173;28;20549;-86